.
WxDataArchive / Data Records for 2014-09-06
2014-09-05 September 2014 2014-09-07

Data Records for Saturday, 06 September 2014

Time	Temp	Chill	HIndex	Humid	Dewpt	 Wind 	HiWind	WindDir	Rain 	Barom
-----	----	-----	------	-----	-----	------	------	-------	-----	-----
00:00	68.9	68.9	68.9	95	67.4	0	0	---	0.00	29.928 
00:05	69.1	69.1	69.1	95	67.6	0	0	---	0.00	29.928 
00:10	69.1	69.1	69.1	95	67.6	0	0	---	0.00	29.928 
00:15	69.1	69.1	69.1	95	67.6	0	0	---	0.00	29.937 
00:20	69.1	69.1	69.1	95	67.6	0	0	---	0.00	29.937 
00:25	69.1	69.1	69.1	95	67.6	0	0	---	0.00	29.937 
00:30	69.1	69.1	69.1	95	67.6	0	0	---	0.00	29.939 
00:35	69.1	69.1	69.1	95	67.6	0	0	---	0.00	29.939 
00:40	69.3	69.3	69.3	95	67.8	0	1	270	0.00	29.939 
00:45	69.3	69.3	69.3	95	67.8	0	1	270	0.00	29.967 
00:50	69.3	69.3	69.3	95	67.8	0	1	270	0.00	29.967 
00:55	69.3	69.3	69.3	95	67.8	0	0	---	0.00	29.967 
01:00	69.3	69.3	69.3	95	67.8	0	0	---	0.00	29.959 
01:05	69.1	69.1	69.1	95	67.6	0	0	---	0.00	29.959 
01:10	69.1	69.1	69.1	95	67.6	0	0	---	0.00	29.959 
01:15	68.9	68.9	68.9	96	67.7	0	0	---	0.00	29.955 
01:20	68.9	68.9	68.9	95	67.4	0	0	---	0.01	29.955 
01:25	68.9	68.9	68.9	96	67.7	0	0	---	0.00	29.955 
01:30	68.9	68.9	68.9	96	67.7	0	0	---	0.00	29.949 
01:35	68.9	68.9	68.9	96	67.7	0	0	---	0.00	29.949 
01:40	68.9	68.9	68.9	96	67.7	0	0	---	0.00	29.949 
01:45	68.9	68.9	68.9	96	67.7	0	0	---	0.00	29.940 
01:50	68.9	68.9	68.9	96	67.7	0	0	---	0.00	29.940 
01:55	68.9	68.9	68.9	96	67.7	0	0	---	0.00	29.940 
02:00	68.9	68.9	68.9	96	67.7	0	0	---	0.00	29.953 
02:05	69.1	69.1	69.1	96	67.9	0	0	---	0.00	29.953 
02:10	69.1	69.1	69.1	96	67.9	0	0	---	0.00	29.953 
02:15	69.1	69.1	69.1	96	67.9	0	0	---	0.00	29.958 
02:20	69.3	69.3	69.3	96	68.1	0	0	---	0.00	29.958 
02:25	69.3	69.3	69.3	96	68.1	0	0	---	0.00	29.958 
02:30	69.1	69.1	69.1	96	67.9	0	1	270	0.00	29.962 
02:35	69.1	69.1	69.1	96	67.9	0	0	---	0.00	29.962 
02:40	69.1	69.1	69.1	96	67.9	0	0	---	0.00	29.962 
02:45	69.1	69.1	69.1	96	67.9	0	0	---	0.00	29.951 
02:50	69.1	69.1	69.1	96	67.9	0	0	---	0.00	29.951 
02:55	69.1	69.1	69.1	96	67.9	0	1	270	0.00	29.951 
03:00	67.6	67.6	67.6	95	66.1	2	7	292	0.00	29.956 
03:05	66.1	66.1	66.1	95	64.6	1	4	315	0.01	29.956 
03:10	65.6	65.6	65.6	95	64.1	1	2	292	0.00	29.956 
03:15	65.2	65.2	65.2	95	63.7	1	4	292	0.00	29.970 
03:20	65.0	65.0	65.0	95	63.5	0	2	292	0.00	29.970 
03:25	65.0	65.0	65.0	95	63.5	0	4	292	0.00	29.970 
03:30	64.8	64.8	64.8	95	63.3	0	1	292	0.00	29.966 
03:35	64.7	64.7	64.7	95	63.2	0	1	292	0.00	29.966 
03:40	64.7	64.7	64.7	95	63.2	0	1	292	0.00	29.966 
03:45	64.7	64.7	64.7	95	63.2	0	1	292	0.00	29.961 
03:50	64.7	64.7	64.7	95	63.2	0	1	292	0.00	29.961 
03:55	64.7	64.7	64.7	95	63.2	0	1	292	0.00	29.961 
04:00	64.7	64.7	64.7	95	63.2	0	1	292	0.00	29.960 
04:05	64.7	64.7	64.7	95	63.2	0	1	292	0.00	29.960 
04:10	64.7	64.7	64.7	95	63.2	0	1	292	0.00	29.960 
04:15	64.7	64.7	64.7	95	63.2	0	0	---	0.00	29.960 
04:20	64.7	64.7	64.7	95	63.2	0	0	---	0.00	29.960 
04:25	64.7	64.7	64.7	95	63.2	0	0	---	0.00	29.960 
04:30	64.8	64.8	64.8	95	63.3	0	0	---	0.00	29.967 
04:35	64.8	64.8	64.8	95	63.3	0	2	292	0.00	29.967 
04:40	64.8	64.8	64.8	95	63.3	0	1	292	0.00	29.967 
04:45	64.8	64.8	64.8	95	63.3	0	1	292	0.00	29.971 
04:50	64.8	64.8	64.8	95	63.3	0	1	292	0.00	29.971 
04:55	64.7	64.7	64.7	95	63.2	0	0	---	0.00	29.971 
05:00	64.7	64.7	64.7	95	63.2	0	1	292	0.00	29.966 
05:05	64.7	64.7	64.7	95	63.2	0	1	292	0.00	29.966 
05:10	64.7	64.7	64.7	95	63.2	0	1	292	0.00	29.966 
05:15	64.7	64.7	64.7	95	63.2	0	1	292	0.00	29.966 
05:20	64.7	64.7	64.7	95	63.2	0	2	292	0.00	29.966 
05:25	64.7	64.7	64.7	95	63.2	0	1	292	0.00	29.966 
05:30	64.8	64.8	64.8	95	63.3	0	1	292	0.00	29.971 
05:35	64.8	64.8	64.8	95	63.3	0	1	292	0.00	29.971 
05:40	64.8	64.8	64.8	95	63.3	0	1	292	0.00	29.971 
05:45	64.8	64.8	64.8	95	63.3	0	1	292	0.00	29.968 
05:50	64.8	64.8	64.8	95	63.3	0	0	---	0.00	29.968 
05:55	64.8	64.8	64.8	95	63.3	0	1	292	0.00	29.968 
06:00	64.8	64.8	64.8	95	63.3	0	1	292	0.00	29.972 
06:05	64.8	64.8	64.8	95	63.3	0	1	292	0.00	29.972 
06:10	64.8	64.8	64.8	95	63.3	0	1	292	0.00	29.972 
06:15	64.8	64.8	64.8	95	63.3	0	1	292	0.00	29.977 
06:20	64.8	64.8	64.8	95	63.3	0	1	292	0.00	29.977 
06:25	64.8	64.8	64.8	95	63.3	0	1	292	0.00	29.977 
06:30	64.8	64.8	64.8	95	63.3	0	1	292	0.00	29.980 
06:35	64.8	64.8	64.8	95	63.3	0	2	292	0.00	29.980 
06:40	64.8	64.8	64.8	95	63.3	0	1	292	0.00	29.980 
06:45	64.8	64.8	64.8	95	63.3	0	1	292	0.00	29.993 
06:50	64.8	64.8	64.8	95	63.3	0	0	---	0.00	29.993 
06:55	64.8	64.8	64.8	95	63.3	0	1	292	0.00	29.993 
07:00	64.7	64.7	64.7	95	63.2	0	1	292	0.00	29.995 
07:05	64.7	64.7	64.7	95	63.2	0	1	292	0.00	29.995 
07:10	64.7	64.7	64.7	95	63.2	0	1	292	0.00	29.995 
07:15	64.7	64.7	64.7	95	63.2	0	0	---	0.00	29.999 
07:20	64.5	64.5	64.5	95	63.0	0	1	292	0.00	29.999 
07:25	64.5	64.5	64.5	94	62.7	0	1	292	0.00	29.999 
07:30	64.5	64.5	64.5	94	62.7	0	1	292	0.00	29.995 
07:35	64.5	64.5	64.5	94	62.7	0	1	292	0.00	29.995 
07:40	64.3	64.3	64.3	94	62.5	0	0	---	0.00	29.995 
07:45	64.3	64.3	64.3	94	62.5	0	0	---	0.00	29.997 
07:50	64.3	64.3	64.3	94	62.5	0	1	292	0.00	29.997 
07:55	64.3	64.3	64.3	94	62.5	0	0	---	0.00	29.997 
08:00	64.3	64.3	64.3	94	62.5	0	0	---	0.00	30.008 
08:05	64.3	64.3	64.3	94	62.5	0	1	292	0.00	30.008 
08:10	64.3	64.3	64.3	94	62.5	0	1	292	0.00	30.008 
08:15	64.2	64.2	64.2	94	62.4	0	1	292	0.00	30.019 
08:20	64.0	64.0	64.0	93	61.9	0	1	292	0.00	30.019 
08:25	64.0	64.0	64.0	93	61.9	0	1	292	0.00	30.019 
08:30	64.0	64.0	64.0	93	61.9	0	0	---	0.00	30.027 
08:35	64.2	64.2	64.2	93	62.1	0	0	---	0.00	30.027 
08:40	64.2	64.2	64.2	93	62.1	0	1	315	0.00	30.027 
08:45	64.0	64.0	64.0	92	61.6	0	2	315	0.00	30.033 
08:50	64.2	64.2	64.2	92	61.8	0	1	315	0.00	30.033 
08:55	64.0	64.0	64.0	92	61.6	0	1	315	0.00	30.033 
09:00	63.9	63.9	63.9	92	61.5	0	1	315	0.00	30.034 
09:05	63.9	63.9	63.9	91	61.2	0	1	315	0.00	30.034 
09:10	64.0	64.0	64.0	91	61.3	0	1	315	0.00	30.034 
09:15	64.2	64.2	64.2	91	61.5	0	1	315	0.00	30.037 
09:20	64.2	64.2	64.2	90	61.2	0	1	315	0.00	30.037 
09:25	64.2	64.2	64.2	90	61.2	0	1	315	0.00	30.037 
09:30	64.3	64.3	64.3	90	61.3	0	1	315	0.00	30.039 
09:35	64.5	64.5	64.5	90	61.5	0	0	---	0.00	30.039 
09:40	64.7	64.7	64.7	90	61.7	0	1	315	0.00	30.039 
09:45	64.8	64.8	64.8	90	61.8	0	1	315	0.00	30.048 
09:50	65.0	65.0	65.0	90	62.0	0	3	292	0.00	30.048 
09:55	65.0	65.0	65.0	89	61.7	0	1	292	0.00	30.048 
10:00	65.2	65.2	65.2	89	61.9	0	2	292	0.00	30.053 
10:05	65.0	65.0	65.0	88	61.4	0	2	315	0.00	30.053 
10:10	65.0	65.0	65.0	88	61.4	0	2	315	0.00	30.053 
10:15	65.0	65.0	65.0	88	61.4	0	1	315	0.00	30.055 
10:20	65.2	65.2	65.2	88	61.6	0	2	315	0.00	30.055 
10:25	65.2	65.2	65.2	88	61.6	0	2	315	0.00	30.055 
10:30	65.2	65.2	65.2	88	61.6	0	2	315	0.00	30.058 
10:35	65.3	65.3	65.3	88	61.6	0	1	315	0.00	30.058 
10:40	65.5	65.5	65.5	87	61.5	0	3	315	0.00	30.058 
10:45	65.6	65.6	65.6	87	61.6	0	3	315	0.00	30.065 
10:50	65.8	65.8	65.8	87	61.8	0	1	315	0.00	30.065 
10:55	65.8	65.8	65.8	86	61.5	0	3	315	0.00	30.065 
11:00	65.8	65.8	65.8	86	61.5	0	2	315	0.00	30.068 
11:05	66.0	66.0	66.0	85	61.4	0	2	315	0.00	30.068 
11:10	66.0	66.0	66.0	84	61.0	0	2	315	0.00	30.068 
11:15	66.3	66.3	66.3	85	61.6	0	1	315	0.00	30.067 
11:20	66.4	66.4	66.4	84	61.4	0	1	315	0.00	30.067 
11:25	66.8	66.8	66.8	84	61.8	0	1	315	0.00	30.067 
11:30	66.9	66.9	66.9	83	61.6	0	1	315	0.00	30.071 
11:35	66.9	66.9	66.9	81	60.9	1	3	315	0.00	30.071 
11:40	66.9	66.9	66.9	80	60.5	1	3	315	0.00	30.071 
11:45	67.3	67.3	67.3	80	60.9	0	2	315	0.00	30.072 
11:50	67.4	67.4	67.4	78	60.3	1	4	315	0.00	30.072 
11:55	67.8	67.8	67.8	78	60.7	1	3	315	0.00	30.072 
12:00	68.1	68.1	68.1	76	60.2	1	5	292	0.00	30.079 
12:05	68.4	68.4	68.4	76	60.5	1	3	315	0.00	30.079 
12:10	68.4	68.4	68.4	75	60.2	1	3	315	0.00	30.079 
12:15	68.4	68.4	68.4	73	59.4	1	4	315	0.00	30.075 
12:20	68.8	68.8	68.8	72	59.4	1	4	315	0.00	30.075 
12:25	69.1	69.1	69.1	73	60.1	0	1	90	0.00	30.075 
12:30	69.4	69.4	69.4	73	60.4	1	4	90	0.00	30.070 
12:35	69.9	69.9	69.9	73	60.8	1	3	45	0.00	30.070 
12:40	70.3	70.3	70.3	71	60.4	1	3	270	0.00	30.070 
12:45	70.4	70.4	70.4	70	60.1	1	4	270	0.00	30.068 
12:50	70.4	70.4	70.4	69	59.7	1	4	315	0.00	30.068 
12:55	70.4	70.4	70.4	70	60.1	1	3	315	0.00	30.068 
13:00	70.1	70.1	70.1	69	59.4	1	4	315	0.00	30.070 
13:05	69.9	69.9	69.9	70	59.7	1	3	315	0.00	30.070 
13:10	69.9	69.9	69.9	71	60.1	1	2	315	0.00	30.070 
13:15	70.4	70.4	70.4	71	60.5	1	2	315	0.00	30.068 
13:20	70.9	70.9	70.9	70	60.6	0	2	315	0.00	30.068 
13:25	71.3	71.3	71.3	66	59.3	2	6	315	0.00	30.068 
13:30	71.5	71.5	71.5	66	59.5	0	3	292	0.00	30.065 
13:35	71.6	71.6	71.6	67	60.0	2	5	292	0.00	30.065 
13:40	71.6	71.6	71.6	66	59.6	0	4	292	0.00	30.065 
13:45	71.8	71.8	71.8	67	60.2	1	3	292	0.00	30.063 
13:50	71.8	71.8	71.8	64	59.0	1	4	292	0.00	30.063 
13:55	72.1	72.1	72.1	63	58.8	2	4	292	0.00	30.063 
14:00	72.7	72.7	72.7	63	59.4	1	3	315	0.00	30.061 
14:05	73.0	73.0	73.0	61	58.7	1	3	315	0.00	30.061 
14:10	73.0	73.0	73.0	58	57.3	2	5	315	0.00	30.061 
14:15	73.0	73.0	73.0	59	57.8	2	6	315	0.00	30.064 
14:20	72.5	72.5	72.5	59	57.3	1	4	315	0.00	30.064 
14:25	72.3	72.3	72.3	62	58.5	2	5	315	0.00	30.064 
14:30	71.8	71.8	71.8	59	56.7	2	6	338	0.00	30.065 
14:35	71.6	71.6	71.6	60	57.0	2	4	292	0.00	30.065 
14:40	71.8	71.8	71.8	61	57.6	1	4	292	0.00	30.065 
14:45	72.3	72.3	72.3	61	58.1	1	5	315	0.00	30.064 
14:50	72.5	72.5	72.5	56	55.9	2	4	315	0.00	30.064 
14:55	72.3	72.3	72.3	54	54.7	2	5	315	0.00	30.064 
15:00	72.5	72.5	72.5	57	56.4	1	3	315	0.00	30.062 
15:05	72.8	72.8	72.8	56	56.2	0	2	0	0.00	30.062 
15:10	73.0	73.0	73.0	55	55.9	1	3	0	0.00	30.062 
15:15	73.0	73.0	73.0	55	55.9	2	6	315	0.00	30.061 
15:20	73.3	73.3	73.3	54	55.6	1	5	315	0.00	30.061 
15:25	73.7	73.7	73.7	54	56.0	1	3	315	0.00	30.061 
15:30	73.3	73.3	73.3	54	55.6	2	4	0	0.00	30.053 
15:35	73.3	73.3	73.3	54	55.6	1	4	315	0.00	30.053 
15:40	73.2	73.2	73.2	53	55.0	2	6	338	0.00	30.053 
15:45	73.0	73.0	73.0	54	55.4	2	5	338	0.00	30.052 
15:50	73.0	73.0	73.0	56	56.4	1	3	338	0.00	30.052 
15:55	73.0	73.0	73.0	56	56.4	1	3	338	0.00	30.052 
16:00	72.7	72.7	72.7	55	55.6	1	5	292	0.00	30.051 
16:05	72.5	72.5	72.5	56	55.9	1	4	292	0.00	30.051 
16:10	72.5	72.5	72.5	56	55.9	1	4	315	0.00	30.051 
16:15	72.3	72.3	72.3	58	56.7	2	4	315	0.00	30.052 
16:20	72.3	72.3	72.3	58	56.7	2	4	315	0.00	30.052 
16:25	72.1	72.1	72.1	58	56.5	2	4	315	0.00	30.052 
16:30	72.1	72.1	72.1	59	57.0	1	3	315	0.00	30.043 
16:35	72.1	72.1	72.1	58	56.5	1	4	315	0.00	30.043 
16:40	72.5	72.5	72.5	58	56.9	1	4	315	0.00	30.043 
16:45	72.5	72.5	72.5	59	57.3	1	4	315	0.00	30.043 
16:50	72.1	72.1	72.1	59	57.0	1	4	315	0.00	30.043 
16:55	72.0	72.0	72.0	59	56.9	1	4	315	0.00	30.043 
17:00	72.3	72.3	72.3	59	57.2	1	5	292	0.00	30.049 
17:05	72.3	72.3	72.3	56	55.7	2	4	338	0.00	30.049 
17:10	71.8	71.8	71.8	57	55.7	1	3	315	0.00	30.049 
17:15	71.6	71.6	71.6	57	55.5	1	4	315	0.00	30.053 
17:20	71.5	71.5	71.5	58	55.9	1	3	292	0.00	30.053 
17:25	71.3	71.3	71.3	58	55.7	1	6	292	0.00	30.053 
17:30	70.9	70.9	70.9	58	55.4	0	4	315	0.00	30.054 
17:35	70.9	70.9	70.9	60	56.3	0	3	315	0.00	30.054 
17:40	71.5	71.5	71.5	57	55.5	1	3	315	0.00	30.054 
17:45	72.1	72.1	72.1	54	54.5	1	3	315	0.00	30.054 
17:50	72.7	72.7	72.7	52	54.0	2	5	292	0.00	30.054 
17:55	73.0	73.0	73.0	53	54.8	1	4	292	0.00	30.054 
18:00	73.2	73.2	73.2	51	54.0	1	4	292	0.00	30.053 
18:05	73.0	73.0	73.0	51	53.8	1	2	315	0.00	30.053 
18:10	72.8	72.8	72.8	50	53.1	1	4	315	0.00	30.053 
18:15	72.7	72.7	72.7	51	53.5	1	2	315	0.00	30.052 
18:20	72.7	72.7	72.7	52	54.0	0	2	315	0.00	30.052 
18:25	72.5	72.5	72.5	49	52.2	1	4	315	0.00	30.052 
18:30	72.5	72.5	72.5	51	53.3	0	3	315	0.00	30.053 
18:35	72.3	72.3	72.3	52	53.7	0	2	315	0.00	30.053 
18:40	72.0	72.0	72.0	52	53.4	1	2	315	0.00	30.053 
18:45	72.0	72.0	72.0	54	54.4	1	3	315	0.00	30.063 
18:50	71.8	71.8	71.8	54	54.2	1	3	315	0.00	30.063 
18:55	71.3	71.3	71.3	54	53.8	0	1	315	0.00	30.063 
19:00	70.9	70.9	70.9	56	54.4	0	1	315	0.00	30.067 
19:05	70.8	70.8	70.8	56	54.3	0	1	315	0.00	30.067 
19:10	70.6	70.6	70.6	57	54.6	0	3	315	0.00	30.067 
19:15	70.6	70.6	70.6	57	54.6	0	1	315	0.00	30.071 
19:20	70.6	70.6	70.6	57	54.6	0	3	315	0.00	30.071 
19:25	70.4	70.4	70.4	56	53.9	0	1	315	0.00	30.071 
19:30	70.4	70.4	70.4	57	54.4	0	1	315	0.00	30.071 
19:35	70.1	70.1	70.1	57	54.1	0	1	315	0.00	30.071 
19:40	69.9	69.9	69.9	57	54.0	0	1	315	0.00	30.071 
19:45	69.6	69.6	69.6	57	53.7	0	0	---	0.00	30.072 
19:50	69.4	69.4	69.4	57	53.5	0	0	---	0.00	30.072 
19:55	69.1	69.1	69.1	57	53.2	0	1	315	0.00	30.072 
20:00	68.6	68.6	68.6	58	53.2	0	0	---	0.00	30.073 
20:05	68.3	68.3	68.3	58	52.9	0	0	---	0.00	30.073 
20:10	67.9	67.9	67.9	59	53.0	0	0	---	0.00	30.073 
20:15	67.4	67.4	67.4	60	53.0	0	0	---	0.00	30.074 
20:20	67.1	67.1	67.1	60	52.7	0	0	---	0.00	30.074 
20:25	66.9	66.9	66.9	61	53.0	0	0	---	0.00	30.074 
20:30	66.8	66.8	66.8	62	53.4	0	0	---	0.00	30.085 
20:35	66.4	66.4	66.4	62	53.0	0	1	315	0.00	30.085 
20:40	66.3	66.3	66.3	63	53.3	0	1	315	0.00	30.085 
20:45	66.3	66.3	66.3	64	53.7	0	0	---	0.00	30.090 
20:50	66.0	66.0	66.0	64	53.5	0	0	---	0.00	30.090 
20:55	65.6	65.6	65.6	65	53.5	0	0	---	0.00	30.090 
21:00	65.5	65.5	65.5	66	53.8	0	1	315	0.00	30.096 
21:05	65.3	65.3	65.3	67	54.1	0	0	---	0.00	30.096 
21:10	65.3	65.3	65.3	68	54.5	0	1	315	0.00	30.096 
21:15	65.2	65.2	65.2	68	54.4	0	0	---	0.00	30.105 
21:20	65.0	65.0	65.0	69	54.6	0	1	315	0.00	30.105 
21:25	64.8	64.8	64.8	69	54.4	0	1	315	0.00	30.105 
21:30	64.7	64.7	64.7	70	54.7	0	1	315	0.00	30.109 
21:35	64.5	64.5	64.5	71	54.9	0	1	315	0.00	30.109 
21:40	64.2	64.2	64.2	71	54.6	0	1	315	0.00	30.109 
21:45	64.0	64.0	64.0	72	54.8	0	1	315	0.00	30.119 
21:50	63.9	63.9	63.9	73	55.1	0	1	315	0.00	30.119 
21:55	63.7	63.7	63.7	73	54.9	0	1	315	0.00	30.119 
22:00	63.5	63.5	63.5	73	54.7	0	1	315	0.00	30.123 
22:05	63.4	63.4	63.4	73	54.6	0	1	315	0.00	30.123 
22:10	63.2	63.2	63.2	74	54.8	0	1	315	0.00	30.123 
22:15	63.1	63.1	63.1	74	54.7	0	1	315	0.00	30.124 
22:20	62.9	62.9	62.9	74	54.5	0	1	315	0.00	30.124 
22:25	62.7	62.7	62.7	75	54.7	0	3	315	0.00	30.124 
22:30	62.6	62.6	62.6	75	54.6	0	1	315	0.00	30.128 
22:35	62.4	62.4	62.4	75	54.4	0	1	315	0.00	30.128 
22:40	62.3	62.3	62.3	75	54.3	0	1	315	0.00	30.128 
22:45	62.0	62.0	62.0	76	54.3	0	1	315	0.00	30.131 
22:50	61.8	61.8	61.8	76	54.1	0	1	315	0.00	30.131 
22:55	61.8	61.8	61.8	76	54.1	0	2	315	0.00	30.131 
23:00	61.6	61.6	61.6	76	54.0	0	1	315	0.00	30.133 
23:05	61.5	61.5	61.5	77	54.2	0	1	315	0.00	30.133 
23:10	61.3	61.3	61.3	77	54.0	0	1	315	0.00	30.133 
23:15	61.2	61.2	61.2	77	53.9	0	1	315	0.00	30.138 
23:20	61.0	61.0	61.0	77	53.7	0	1	315	0.00	30.138 
23:25	60.9	60.9	60.9	77	53.6	0	1	315	0.00	30.138 
23:30	60.7	60.7	60.7	77	53.4	0	0	---	0.00	30.138 
23:35	60.5	60.5	60.5	78	53.6	0	0	---	0.00	30.138 
23:40	60.4	60.4	60.4	79	53.9	0	0	---	0.00	30.138 
23:45	60.1	60.1	60.1	79	53.6	0	0	---	0.00	30.139 
23:50	59.9	59.9	59.9	80	53.7	0	0	---	0.00	30.139 
23:55	59.8	59.8	59.8	80	53.6	0	0	---	0.00	30.139 

CoCoRaHS
IN-AL-39
A2 Web Hosting
Creative Commons License
GoDaddy
search engine by freefind advanced

loaded 2018-11-13 21:46:03 • last modified 2010-11-18 10:43:29
Privacy PolicyDisclaimer
• wx.awcolley.com is powered by PmWiki v.2002016 •
• all content (unless otherwise noted) © 2018 A W Colley